sensor_id;sensor_type;location;lat;lon;timestamp;P1;durP1;ratioP1;P2;durP2;ratioP2
27999;SDS011;15328;50.860;10.562;2022-08-19T00:04:55;11.20;;;8.88;;
27999;SDS011;15328;50.860;10.562;2022-08-19T00:09:56;10.32;;;8.20;;
27999;SDS011;15328;50.860;10.562;2022-08-19T00:14:56;13.13;;;9.60;;
27999;SDS011;15328;50.860;10.562;2022-08-19T00:19:56;9.30;;;8.23;;
27999;SDS011;15328;50.860;10.562;2022-08-19T00:24:57;10.03;;;7.90;;
27999;SDS011;15328;50.860;10.562;2022-08-19T00:29:57;8.90;;;7.43;;
27999;SDS011;15328;50.860;10.562;2022-08-19T00:34:58;7.97;;;7.18;;
27999;SDS011;15328;50.860;10.562;2022-08-19T00:39:59;9.87;;;7.87;;
27999;SDS011;15328;50.860;10.562;2022-08-19T00:44:59;8.67;;;7.63;;
27999;SDS011;15328;50.860;10.562;2022-08-19T00:50:00;9.55;;;7.50;;
27999;SDS011;15328;50.860;10.562;2022-08-19T00:55:00;9.43;;;7.80;;
27999;SDS011;15328;50.860;10.562;2022-08-19T01:00:03;9.48;;;7.38;;
27999;SDS011;15328;50.860;10.562;2022-08-19T01:05:13;9.88;;;7.70;;
27999;SDS011;15328;50.860;10.562;2022-08-19T01:10:20;9.43;;;7.95;;
27999;SDS011;15328;50.860;10.562;2022-08-19T01:15:29;9.15;;;8.15;;
27999;SDS011;15328;50.860;10.562;2022-08-19T01:20:32;9.60;;;7.70;;
27999;SDS011;15328;50.860;10.562;2022-08-19T01:25:50;8.95;;;7.65;;
27999;SDS011;15328;50.860;10.562;2022-08-19T01:30:52;8.80;;;7.63;;
27999;SDS011;15328;50.860;10.562;2022-08-19T01:35:54;8.35;;;7.25;;
27999;SDS011;15328;50.860;10.562;2022-08-19T01:41:11;9.75;;;7.50;;
27999;SDS011;15328;50.860;10.562;2022-08-19T01:46:11;9.38;;;7.90;;
27999;SDS011;15328;50.860;10.562;2022-08-19T01:51:12;10.75;;;7.95;;
27999;SDS011;15328;50.860;10.562;2022-08-19T01:56:13;10.90;;;8.10;;
27999;SDS011;15328;50.860;10.562;2022-08-19T02:01:14;9.43;;;7.90;;
27999;SDS011;15328;50.860;10.562;2022-08-19T02:06:14;7.70;;;6.78;;
27999;SDS011;15328;50.860;10.562;2022-08-19T02:11:18;9.57;;;7.95;;
27999;SDS011;15328;50.860;10.562;2022-08-19T02:16:23;10.02;;;7.68;;
27999;SDS011;15328;50.860;10.562;2022-08-19T02:21:24;8.23;;;6.93;;
27999;SDS011;15328;50.860;10.562;2022-08-19T02:26:25;6.97;;;5.93;;
27999;SDS011;15328;50.860;10.562;2022-08-19T02:31:28;7.47;;;6.20;;
27999;SDS011;15328;50.860;10.562;2022-08-19T02:36:29;8.65;;;6.57;;
27999;SDS011;15328;50.860;10.562;2022-08-19T02:41:31;9.48;;;7.45;;
27999;SDS011;15328;50.860;10.562;2022-08-19T02:46:33;7.72;;;6.20;;
27999;SDS011;15328;50.860;10.562;2022-08-19T02:51:38;7.50;;;6.20;;
27999;SDS011;15328;50.860;10.562;2022-08-19T02:56:40;7.28;;;6.47;;
27999;SDS011;15328;50.860;10.562;2022-08-19T03:01:43;8.85;;;7.15;;
27999;SDS011;15328;50.860;10.562;2022-08-19T03:06:44;8.80;;;7.27;;
27999;SDS011;15328;50.860;10.562;2022-08-19T03:11:45;8.40;;;7.18;;
27999;SDS011;15328;50.860;10.562;2022-08-19T03:16:47;12.35;;;9.38;;
27999;SDS011;15328;50.860;10.562;2022-08-19T03:21:50;13.75;;;10.70;;
27999;SDS011;15328;50.860;10.562;2022-08-19T03:26:52;15.38;;;12.40;;
27999;SDS011;15328;50.860;10.562;2022-08-19T03:32:00;15.65;;;11.98;;
27999;SDS011;15328;50.860;10.562;2022-08-19T03:37:05;18.73;;;14.10;;
27999;SDS011;15328;50.860;10.562;2022-08-19T03:42:10;16.38;;;12.95;;
27999;SDS011;15328;50.860;10.562;2022-08-19T03:47:11;13.40;;;11.18;;
27999;SDS011;15328;50.860;10.562;2022-08-19T03:52:16;16.17;;;13.50;;
27999;SDS011;15328;50.860;10.562;2022-08-19T03:57:16;14.03;;;12.03;;
27999;SDS011;15328;50.860;10.562;2022-08-19T04:02:16;17.87;;;14.17;;
27999;SDS011;15328;50.860;10.562;2022-08-19T04:07:17;18.42;;;15.15;;
27999;SDS011;15328;50.860;10.562;2022-08-19T04:12:21;14.15;;;11.98;;
27999;SDS011;15328;50.860;10.562;2022-08-19T04:17:21;21.27;;;16.38;;
27999;SDS011;15328;50.860;10.562;2022-08-19T04:22:22;19.02;;;14.43;;
27999;SDS011;15328;50.860;10.562;2022-08-19T04:27:22;19.83;;;13.80;;
27999;SDS011;15328;50.860;10.562;2022-08-19T04:32:22;22.40;;;18.20;;
27999;SDS011;15328;50.860;10.562;2022-08-19T04:37:23;15.63;;;13.07;;
27999;SDS011;15328;50.860;10.562;2022-08-19T04:42:26;20.30;;;16.00;;
27999;SDS011;15328;50.860;10.562;2022-08-19T04:47:39;14.18;;;11.52;;
27999;SDS011;15328;50.860;10.562;2022-08-19T04:52:41;21.58;;;15.30;;
27999;SDS011;15328;50.860;10.562;2022-08-19T04:57:44;16.42;;;12.98;;
27999;SDS011;15328;50.860;10.562;2022-08-19T05:02:44;15.57;;;13.00;;
27999;SDS011;15328;50.860;10.562;2022-08-19T05:07:45;22.13;;;17.80;;
27999;SDS011;15328;50.860;10.562;2022-08-19T05:12:45;17.47;;;13.77;;
27999;SDS011;15328;50.860;10.562;2022-08-19T05:17:45;14.50;;;11.30;;
27999;SDS011;15328;50.860;10.562;2022-08-19T05:23:06;20.60;;;16.05;;
27999;SDS011;15328;50.860;10.562;2022-08-19T05:28:06;16.40;;;12.70;;
27999;SDS011;15328;50.860;10.562;2022-08-19T05:33:07;20.40;;;15.77;;
27999;SDS011;15328;50.860;10.562;2022-08-19T05:38:11;12.73;;;11.25;;
27999;SDS011;15328;50.860;10.562;2022-08-19T05:43:12;13.00;;;10.73;;
27999;SDS011;15328;50.860;10.562;2022-08-19T05:48:15;12.82;;;10.50;;
27999;SDS011;15328;50.860;10.562;2022-08-19T05:53:17;10.85;;;8.65;;
27999;SDS011;15328;50.860;10.562;2022-08-19T05:58:18;11.75;;;8.35;;
27999;SDS011;15328;50.860;10.562;2022-08-19T06:03:18;10.23;;;9.03;;
27999;SDS011;15328;50.860;10.562;2022-08-19T06:08:19;10.10;;;8.23;;
27999;SDS011;15328;50.860;10.562;2022-08-19T06:13:20;10.07;;;6.55;;
27999;SDS011;15328;50.860;10.562;2022-08-19T06:18:21;8.20;;;5.80;;
27999;SDS011;15328;50.860;10.562;2022-08-19T06:23:21;7.75;;;5.93;;
27999;SDS011;15328;50.860;10.562;2022-08-19T06:28:22;7.68;;;5.22;;
27999;SDS011;15328;50.860;10.562;2022-08-19T06:33:23;4.53;;;3.85;;
27999;SDS011;15328;50.860;10.562;2022-08-19T06:38:24;6.22;;;4.47;;
27999;SDS011;15328;50.860;10.562;2022-08-19T06:43:25;6.82;;;4.90;;
27999;SDS011;15328;50.860;10.562;2022-08-19T06:48:25;6.93;;;4.63;;
27999;SDS011;15328;50.860;10.562;2022-08-19T06:53:26;6.22;;;4.93;;
27999;SDS011;15328;50.860;10.562;2022-08-19T06:58:30;6.97;;;4.68;;
27999;SDS011;15328;50.860;10.562;2022-08-19T07:03:32;7.43;;;4.95;;
27999;SDS011;15328;50.860;10.562;2022-08-19T07:08:35;6.88;;;5.18;;
27999;SDS011;15328;50.860;10.562;2022-08-19T07:13:37;7.20;;;4.82;;
27999;SDS011;15328;50.860;10.562;2022-08-19T07:18:37;6.50;;;4.30;;
27999;SDS011;15328;50.860;10.562;2022-08-19T07:23:39;6.53;;;4.20;;
27999;SDS011;15328;50.860;10.562;2022-08-19T07:28:39;6.03;;;4.72;;
27999;SDS011;15328;50.860;10.562;2022-08-19T07:33:40;5.53;;;4.18;;
27999;SDS011;15328;50.860;10.562;2022-08-19T07:38:43;5.55;;;3.63;;
27999;SDS011;15328;50.860;10.562;2022-08-19T07:43:45;4.60;;;2.95;;
27999;SDS011;15328;50.860;10.562;2022-08-19T07:48:46;4.03;;;2.88;;
27999;SDS011;15328;50.860;10.562;2022-08-19T07:53:48;3.22;;;2.92;;
27999;SDS011;15328;50.860;10.562;2022-08-19T07:58:52;3.40;;;2.92;;
27999;SDS011;15328;50.860;10.562;2022-08-19T08:03:53;2.95;;;2.50;;
27999;SDS011;15328;50.860;10.562;2022-08-19T08:09:13;3.85;;;2.38;;
27999;SDS011;15328;50.860;10.562;2022-08-19T08:14:27;3.40;;;2.40;;
27999;SDS011;15328;50.860;10.562;2022-08-19T08:19:33;5.20;;;3.08;;
27999;SDS011;15328;50.860;10.562;2022-08-19T08:24:34;2.22;;;1.90;;
27999;SDS011;15328;50.860;10.562;2022-08-19T08:29:35;3.08;;;2.03;;
27999;SDS011;15328;50.860;10.562;2022-08-19T08:34:36;3.80;;;2.30;;
27999;SDS011;15328;50.860;10.562;2022-08-19T08:39:36;3.97;;;2.33;;
27999;SDS011;15328;50.860;10.562;2022-08-19T08:44:49;2.63;;;2.30;;
27999;SDS011;15328;50.860;10.562;2022-08-19T08:49:59;2.95;;;2.00;;
27999;SDS011;15328;50.860;10.562;2022-08-19T08:55:21;2.80;;;1.63;;
27999;SDS011;15328;50.860;10.562;2022-08-19T09:00:34;2.05;;;1.40;;
27999;SDS011;15328;50.860;10.562;2022-08-19T09:10:49;2.72;;;1.80;;
27999;SDS011;15328;50.860;10.562;2022-08-19T09:15:53;1.80;;;1.30;;
27999;SDS011;15328;50.860;10.562;2022-08-19T09:20:58;2.22;;;1.67;;
27999;SDS011;15328;50.860;10.562;2022-08-19T09:25:58;2.28;;;1.30;;
27999;SDS011;15328;50.860;10.562;2022-08-19T09:30:58;1.80;;;1.20;;
27999;SDS011;15328;50.860;10.562;2022-08-19T09:36:04;1.65;;;1.00;;
27999;SDS011;15328;50.860;10.562;2022-08-19T09:41:08;1.52;;;1.05;;
27999;SDS011;15328;50.860;10.562;2022-08-19T09:46:12;3.20;;;1.60;;
27999;SDS011;15328;50.860;10.562;2022-08-19T09:51:13;2.50;;;1.38;;
27999;SDS011;15328;50.860;10.562;2022-08-19T09:56:17;3.05;;;1.60;;
27999;SDS011;15328;50.860;10.562;2022-08-19T10:01:23;1.60;;;1.17;;
27999;SDS011;15328;50.860;10.562;2022-08-19T10:06:27;2.53;;;1.70;;
27999;SDS011;15328;50.860;10.562;2022-08-19T10:11:32;3.03;;;1.85;;
27999;SDS011;15328;50.860;10.562;2022-08-19T10:16:33;3.47;;;1.83;;
27999;SDS011;15328;50.860;10.562;2022-08-19T10:21:35;2.25;;;1.48;;
27999;SDS011;15328;50.860;10.562;2022-08-19T10:26:37;2.47;;;1.75;;
27999;SDS011;15328;50.860;10.562;2022-08-19T10:31:39;1.73;;;1.42;;
27999;SDS011;15328;50.860;10.562;2022-08-19T10:36:39;1.80;;;1.40;;
27999;SDS011;15328;50.860;10.562;2022-08-19T10:41:40;1.30;;;1.20;;
27999;SDS011;15328;50.860;10.562;2022-08-19T10:46:43;2.00;;;1.60;;
27999;SDS011;15328;50.860;10.562;2022-08-19T10:51:44;3.17;;;1.60;;
27999;SDS011;15328;50.860;10.562;2022-08-19T10:57:04;1.77;;;1.30;;
27999;SDS011;15328;50.860;10.562;2022-08-19T11:02:05;2.60;;;1.35;;
27999;SDS011;15328;50.860;10.562;2022-08-19T11:07:09;2.22;;;1.58;;
27999;SDS011;15328;50.860;10.562;2022-08-19T11:12:11;1.75;;;1.30;;
27999;SDS011;15328;50.860;10.562;2022-08-19T11:17:12;1.48;;;1.20;;
27999;SDS011;15328;50.860;10.562;2022-08-19T11:22:13;2.60;;;1.20;;
27999;SDS011;15328;50.860;10.562;2022-08-19T11:27:13;1.20;;;1.10;;
27999;SDS011;15328;50.860;10.562;2022-08-19T11:32:14;1.37;;;1.10;;
27999;SDS011;15328;50.860;10.562;2022-08-19T11:37:15;2.63;;;1.58;;
27999;SDS011;15328;50.860;10.562;2022-08-19T11:42:16;4.60;;;1.50;;
27999;SDS011;15328;50.860;10.562;2022-08-19T11:47:36;2.33;;;1.40;;
27999;SDS011;15328;50.860;10.562;2022-08-19T11:52:36;1.97;;;1.20;;
27999;SDS011;15328;50.860;10.562;2022-08-19T11:57:37;2.45;;;1.52;;
27999;SDS011;15328;50.860;10.562;2022-08-19T12:02:37;1.70;;;1.30;;
27999;SDS011;15328;50.860;10.562;2022-08-19T12:07:39;1.98;;;1.48;;
27999;SDS011;15328;50.860;10.562;2022-08-19T12:12:41;4.45;;;1.92;;
27999;SDS011;15328;50.860;10.562;2022-08-19T12:17:42;2.13;;;1.40;;
27999;SDS011;15328;50.860;10.562;2022-08-19T12:22:43;3.33;;;1.30;;
27999;SDS011;15328;50.860;10.562;2022-08-19T12:27:43;2.13;;;1.40;;
27999;SDS011;15328;50.860;10.562;2022-08-19T12:32:44;2.63;;;1.40;;
27999;SDS011;15328;50.860;10.562;2022-08-19T12:37:45;2.83;;;1.80;;
27999;SDS011;15328;50.860;10.562;2022-08-19T12:42:47;2.17;;;1.50;;
27999;SDS011;15328;50.860;10.562;2022-08-19T12:47:50;1.27;;;1.13;;
27999;SDS011;15328;50.860;10.562;2022-08-19T12:52:52;1.10;;;1.00;;
27999;SDS011;15328;50.860;10.562;2022-08-19T12:57:53;2.10;;;1.27;;
27999;SDS011;15328;50.860;10.562;2022-08-19T13:02:54;2.55;;;1.67;;
27999;SDS011;15328;50.860;10.562;2022-08-19T13:07:55;2.00;;;1.40;;
27999;SDS011;15328;50.860;10.562;2022-08-19T13:12:57;2.53;;;1.73;;
27999;SDS011;15328;50.860;10.562;2022-08-19T13:17:59;2.70;;;1.70;;
27999;SDS011;15328;50.860;10.562;2022-08-19T13:23:00;4.05;;;2.10;;
27999;SDS011;15328;50.860;10.562;2022-08-19T13:28:00;1.80;;;1.50;;
27999;SDS011;15328;50.860;10.562;2022-08-19T13:33:01;2.35;;;1.60;;
27999;SDS011;15328;50.860;10.562;2022-08-19T13:38:11;1.67;;;1.42;;
27999;SDS011;15328;50.860;10.562;2022-08-19T13:43:12;2.03;;;1.77;;
27999;SDS011;15328;50.860;10.562;2022-08-19T13:48:13;1.60;;;1.33;;
27999;SDS011;15328;50.860;10.562;2022-08-19T13:53:14;2.03;;;1.40;;
27999;SDS011;15328;50.860;10.562;2022-08-19T13:58:15;2.30;;;1.30;;
27999;SDS011;15328;50.860;10.562;2022-08-19T14:03:15;1.60;;;1.30;;
27999;SDS011;15328;50.860;10.562;2022-08-19T14:08:16;1.13;;;1.00;;
27999;SDS011;15328;50.860;10.562;2022-08-19T14:13:18;1.98;;;1.45;;
27999;SDS011;15328;50.860;10.562;2022-08-19T14:18:20;1.60;;;1.40;;
27999;SDS011;15328;50.860;10.562;2022-08-19T14:23:20;2.85;;;1.60;;
27999;SDS011;15328;50.860;10.562;2022-08-19T14:28:21;2.22;;;1.60;;
27999;SDS011;15328;50.860;10.562;2022-08-19T14:33:22;1.67;;;1.45;;
27999;SDS011;15328;50.860;10.562;2022-08-19T14:38:22;5.20;;;1.40;;
27999;SDS011;15328;50.860;10.562;2022-08-19T14:43:23;3.13;;;1.40;;
27999;SDS011;15328;50.860;10.562;2022-08-19T14:48:23;1.90;;;1.47;;
27999;SDS011;15328;50.860;10.562;2022-08-19T14:53:23;1.27;;;1.10;;
27999;SDS011;15328;50.860;10.562;2022-08-19T14:58:24;1.30;;;1.20;;
27999;SDS011;15328;50.860;10.562;2022-08-19T15:03:24;2.03;;;1.60;;
27999;SDS011;15328;50.860;10.562;2022-08-19T15:08:26;1.52;;;1.20;;
27999;SDS011;15328;50.860;10.562;2022-08-19T15:13:28;1.50;;;1.10;;
27999;SDS011;15328;50.860;10.562;2022-08-19T15:18:30;2.78;;;1.10;;
27999;SDS011;15328;50.860;10.562;2022-08-19T15:23:30;1.73;;;1.20;;
27999;SDS011;15328;50.860;10.562;2022-08-19T15:28:31;1.40;;;1.20;;
27999;SDS011;15328;50.860;10.562;2022-08-19T15:33:33;1.33;;;0.93;;
27999;SDS011;15328;50.860;10.562;2022-08-19T15:38:36;1.80;;;1.08;;
27999;SDS011;15328;50.860;10.562;2022-08-19T15:43:37;1.77;;;0.87;;
27999;SDS011;15328;50.860;10.562;2022-08-19T15:48:41;1.38;;;1.10;;
27999;SDS011;15328;50.860;10.562;2022-08-19T15:53:41;0.90;;;0.73;;
27999;SDS011;15328;50.860;10.562;2022-08-19T15:58:42;1.67;;;1.10;;
27999;SDS011;15328;50.860;10.562;2022-08-19T16:04:19;2.95;;;1.10;;
27999;SDS011;15328;50.860;10.562;2022-08-19T16:09:37;1.75;;;1.30;;
27999;SDS011;15328;50.860;10.562;2022-08-19T16:14:38;2.95;;;2.50;;
27999;SDS011;15328;50.860;10.562;2022-08-19T16:19:38;17.00;;;14.70;;
27999;SDS011;15328;50.860;10.562;2022-08-19T16:24:39;29.63;;;26.40;;
27999;SDS011;15328;50.860;10.562;2022-08-19T16:29:40;18.08;;;14.95;;
27999;SDS011;15328;50.860;10.562;2022-08-19T16:34:41;18.83;;;15.43;;
27999;SDS011;15328;50.860;10.562;2022-08-19T16:39:42;26.25;;;20.63;;
27999;SDS011;15328;50.860;10.562;2022-08-19T16:44:43;10.18;;;8.18;;
27999;SDS011;15328;50.860;10.562;2022-08-19T16:49:44;13.88;;;10.32;;
27999;SDS011;15328;50.860;10.562;2022-08-19T16:54:45;6.82;;;4.88;;
27999;SDS011;15328;50.860;10.562;2022-08-19T16:59:46;6.85;;;5.00;;
27999;SDS011;15328;50.860;10.562;2022-08-19T17:04:48;4.85;;;3.58;;
27999;SDS011;15328;50.860;10.562;2022-08-19T17:09:50;3.30;;;2.50;;
27999;SDS011;15328;50.860;10.562;2022-08-19T17:14:51;1.90;;;1.70;;
27999;SDS011;15328;50.860;10.562;2022-08-19T17:19:51;2.97;;;1.60;;
27999;SDS011;15328;50.860;10.562;2022-08-19T17:24:52;1.42;;;1.10;;
27999;SDS011;15328;50.860;10.562;2022-08-19T17:29:53;1.88;;;1.10;;
27999;SDS011;15328;50.860;10.562;2022-08-19T17:34:53;1.10;;;1.00;;
27999;SDS011;15328;50.860;10.562;2022-08-19T17:39:53;1.03;;;0.70;;
27999;SDS011;15328;50.860;10.562;2022-08-19T17:44:54;1.52;;;0.80;;
27999;SDS011;15328;50.860;10.562;2022-08-19T17:49:58;1.23;;;1.13;;
27999;SDS011;15328;50.860;10.562;2022-08-19T17:54:58;1.53;;;1.07;;
27999;SDS011;15328;50.860;10.562;2022-08-19T17:59:58;2.87;;;0.90;;
27999;SDS011;15328;50.860;10.562;2022-08-19T18:04:59;1.77;;;0.90;;
27999;SDS011;15328;50.860;10.562;2022-08-19T18:09:59;2.00;;;1.00;;
27999;SDS011;15328;50.860;10.562;2022-08-19T18:15:00;1.30;;;0.90;;
27999;SDS011;15328;50.860;10.562;2022-08-19T18:20:06;1.85;;;0.95;;
27999;SDS011;15328;50.860;10.562;2022-08-19T18:25:11;1.08;;;0.80;;
27999;SDS011;15328;50.860;10.562;2022-08-19T18:30:12;0.90;;;0.80;;
27999;SDS011;15328;50.860;10.562;2022-08-19T18:35:15;1.02;;;0.82;;
27999;SDS011;15328;50.860;10.562;2022-08-19T18:40:19;0.90;;;0.80;;
27999;SDS011;15328;50.860;10.562;2022-08-19T18:45:39;1.20;;;1.10;;
27999;SDS011;15328;50.860;10.562;2022-08-19T18:50:59;1.00;;;0.90;;
27999;SDS011;15328;50.860;10.562;2022-08-19T18:56:01;1.50;;;1.00;;
27999;SDS011;15328;50.860;10.562;2022-08-19T19:01:07;2.00;;;0.82;;
27999;SDS011;15328;50.860;10.562;2022-08-19T19:06:12;1.05;;;0.82;;
27999;SDS011;15328;50.860;10.562;2022-08-19T19:11:14;1.20;;;0.80;;
27999;SDS011;15328;50.860;10.562;2022-08-19T19:16:20;1.35;;;0.90;;
27999;SDS011;15328;50.860;10.562;2022-08-19T19:21:22;1.08;;;0.98;;
27999;SDS011;15328;50.860;10.562;2022-08-19T19:26:23;1.25;;;0.70;;
27999;SDS011;15328;50.860;10.562;2022-08-19T19:31:24;1.43;;;0.80;;
27999;SDS011;15328;50.860;10.562;2022-08-19T19:36:25;1.38;;;0.90;;
27999;SDS011;15328;50.860;10.562;2022-08-19T19:41:26;2.00;;;1.07;;
27999;SDS011;15328;50.860;10.562;2022-08-19T19:46:26;1.15;;;1.05;;
27999;SDS011;15328;50.860;10.562;2022-08-19T19:51:28;1.92;;;1.17;;
27999;SDS011;15328;50.860;10.562;2022-08-19T19:56:28;2.50;;;1.80;;
27999;SDS011;15328;50.860;10.562;2022-08-19T20:01:28;1.50;;;1.40;;
27999;SDS011;15328;50.860;10.562;2022-08-19T20:06:29;1.58;;;1.10;;
27999;SDS011;15328;50.860;10.562;2022-08-19T20:11:31;1.52;;;1.20;;
27999;SDS011;15328;50.860;10.562;2022-08-19T20:16:32;1.20;;;0.93;;
27999;SDS011;15328;50.860;10.562;2022-08-19T20:21:32;1.47;;;1.10;;
27999;SDS011;15328;50.860;10.562;2022-08-19T20:26:33;1.80;;;1.23;;
27999;SDS011;15328;50.860;10.562;2022-08-19T20:31:34;1.52;;;1.15;;
27999;SDS011;15328;50.860;10.562;2022-08-19T20:36:35;1.60;;;1.30;;
27999;SDS011;15328;50.860;10.562;2022-08-19T20:41:36;1.10;;;1.00;;
27999;SDS011;15328;50.860;10.562;2022-08-19T20:46:37;1.23;;;0.90;;
27999;SDS011;15328;50.860;10.562;2022-08-19T20:51:37;1.63;;;0.95;;
27999;SDS011;15328;50.860;10.562;2022-08-19T20:56:38;1.88;;;1.10;;
27999;SDS011;15328;50.860;10.562;2022-08-19T21:01:38;1.27;;;1.07;;
27999;SDS011;15328;50.860;10.562;2022-08-19T21:06:38;1.05;;;0.88;;
27999;SDS011;15328;50.860;10.562;2022-08-19T21:11:39;1.10;;;1.00;;
27999;SDS011;15328;50.860;10.562;2022-08-19T21:16:39;1.27;;;1.00;;
27999;SDS011;15328;50.860;10.562;2022-08-19T21:21:40;1.00;;;0.90;;
27999;SDS011;15328;50.860;10.562;2022-08-19T21:26:40;3.10;;;1.00;;
27999;SDS011;15328;50.860;10.562;2022-08-19T21:31:40;1.25;;;1.00;;
27999;SDS011;15328;50.860;10.562;2022-08-19T21:36:41;1.20;;;0.90;;
27999;SDS011;15328;50.860;10.562;2022-08-19T21:41:41;0.77;;;0.70;;
27999;SDS011;15328;50.860;10.562;2022-08-19T21:46:42;1.23;;;0.90;;
27999;SDS011;15328;50.860;10.562;2022-08-19T21:51:42;1.10;;;0.90;;
27999;SDS011;15328;50.860;10.562;2022-08-19T21:56:43;1.40;;;1.10;;
27999;SDS011;15328;50.860;10.562;2022-08-19T22:01:43;1.70;;;1.20;;
27999;SDS011;15328;50.860;10.562;2022-08-19T22:06:44;1.27;;;1.17;;
27999;SDS011;15328;50.860;10.562;2022-08-19T22:11:45;1.63;;;1.05;;
27999;SDS011;15328;50.860;10.562;2022-08-19T22:16:45;1.93;;;0.90;;
27999;SDS011;15328;50.860;10.562;2022-08-19T22:21:46;1.20;;;1.10;;
27999;SDS011;15328;50.860;10.562;2022-08-19T22:26:46;1.70;;;1.17;;
27999;SDS011;15328;50.860;10.562;2022-08-19T22:31:46;2.00;;;1.50;;
27999;SDS011;15328;50.860;10.562;2022-08-19T22:36:47;1.60;;;1.17;;
27999;SDS011;15328;50.860;10.562;2022-08-19T22:41:47;2.87;;;1.43;;
27999;SDS011;15328;50.860;10.562;2022-08-19T22:46:48;1.55;;;1.10;;
27999;SDS011;15328;50.860;10.562;2022-08-19T22:51:48;1.50;;;1.20;;
27999;SDS011;15328;50.860;10.562;2022-08-19T22:57:07;1.35;;;1.05;;
27999;SDS011;15328;50.860;10.562;2022-08-19T23:02:10;1.20;;;1.10;;
27999;SDS011;15328;50.860;10.562;2022-08-19T23:07:10;1.50;;;1.20;;
27999;SDS011;15328;50.860;10.562;2022-08-19T23:12:11;1.25;;;1.15;;
27999;SDS011;15328;50.860;10.562;2022-08-19T23:17:12;2.00;;;1.20;;
27999;SDS011;15328;50.860;10.562;2022-08-19T23:22:16;2.60;;;1.10;;
27999;SDS011;15328;50.860;10.562;2022-08-19T23:27:18;1.42;;;1.27;;
27999;SDS011;15328;50.860;10.562;2022-08-19T23:32:36;1.90;;;1.15;;
27999;SDS011;15328;50.860;10.562;2022-08-19T23:37:37;1.20;;;1.05;;
27999;SDS011;15328;50.860;10.562;2022-08-19T23:42:40;1.60;;;1.27;;
27999;SDS011;15328;50.860;10.562;2022-08-19T23:47:41;1.77;;;1.55;;
27999;SDS011;15328;50.860;10.562;2022-08-19T23:52:43;1.10;;;1.00;;
27999;SDS011;15328;50.860;10.562;2022-08-19T23:57:44;1.85;;;1.27;;
